sensor_id;sensor_type;location;lat;lon;timestamp;P1;durP1;ratioP1;P2;durP2;ratioP2
65982;SDS011;52740;40.620;-8.640;2022-08-30T00:01:37;21.17;;;18.98;;
65982;SDS011;52740;40.620;-8.640;2022-08-30T00:03:39;23.90;;;19.10;;
65982;SDS011;52740;40.620;-8.640;2022-08-30T00:05:44;21.58;;;19.58;;
65982;SDS011;52740;40.620;-8.640;2022-08-30T00:07:46;20.98;;;19.27;;
65982;SDS011;52740;40.620;-8.640;2022-08-30T00:09:46;21.85;;;19.80;;
65982;SDS011;52740;40.620;-8.640;2022-08-30T00:11:47;22.70;;;20.75;;
65982;SDS011;52740;40.620;-8.640;2022-08-30T00:13:52;23.38;;;21.33;;
65982;SDS011;52740;40.620;-8.640;2022-08-30T00:15:54;24.00;;;22.20;;
65982;SDS011;52740;40.620;-8.640;2022-08-30T00:17:55;22.05;;;19.83;;
65982;SDS011;52740;40.620;-8.640;2022-08-30T00:19:55;24.92;;;22.58;;
65982;SDS011;52740;40.620;-8.640;2022-08-30T00:21:56;20.77;;;19.00;;
65982;SDS011;52740;40.620;-8.640;2022-08-30T00:23:57;21.67;;;19.48;;
65982;SDS011;52740;40.620;-8.640;2022-08-30T00:25:58;21.10;;;19.50;;
65982;SDS011;52740;40.620;-8.640;2022-08-30T00:27:59;19.30;;;17.27;;
65982;SDS011;52740;40.620;-8.640;2022-08-30T00:29:59;25.55;;;19.92;;
65982;SDS011;52740;40.620;-8.640;2022-08-30T00:32:00;21.70;;;18.88;;
65982;SDS011;52740;40.620;-8.640;2022-08-30T00:34:01;20.10;;;18.55;;
65982;SDS011;52740;40.620;-8.640;2022-08-30T00:36:02;22.15;;;19.95;;
65982;SDS011;52740;40.620;-8.640;2022-08-30T00:38:07;21.63;;;19.60;;
65982;SDS011;52740;40.620;-8.640;2022-08-30T00:40:09;19.05;;;17.55;;
65982;SDS011;52740;40.620;-8.640;2022-08-30T00:42:12;42.13;;;38.85;;
65982;SDS011;52740;40.620;-8.640;2022-08-30T00:44:13;19.70;;;17.73;;
65982;SDS011;52740;40.620;-8.640;2022-08-30T00:46:14;18.83;;;17.13;;
65982;SDS011;52740;40.620;-8.640;2022-08-30T00:48:14;17.92;;;15.98;;
65982;SDS011;52740;40.620;-8.640;2022-08-30T00:50:16;19.48;;;17.50;;
65982;SDS011;52740;40.620;-8.640;2022-08-30T00:52:19;16.60;;;15.10;;
65982;SDS011;52740;40.620;-8.640;2022-08-30T00:54:23;16.90;;;15.37;;
65982;SDS011;52740;40.620;-8.640;2022-08-30T00:56:24;15.25;;;14.05;;
65982;SDS011;52740;40.620;-8.640;2022-08-30T00:58:29;16.45;;;14.93;;
65982;SDS011;52740;40.620;-8.640;2022-08-30T01:00:33;17.58;;;16.10;;
65982;SDS011;52740;40.620;-8.640;2022-08-30T01:02:35;16.02;;;14.70;;
65982;SDS011;52740;40.620;-8.640;2022-08-30T01:04:36;17.45;;;15.88;;
65982;SDS011;52740;40.620;-8.640;2022-08-30T01:06:39;18.08;;;16.40;;
65982;SDS011;52740;40.620;-8.640;2022-08-30T01:08:41;18.48;;;16.98;;
65982;SDS011;52740;40.620;-8.640;2022-08-30T01:10:43;18.13;;;16.88;;
65982;SDS011;52740;40.620;-8.640;2022-08-30T01:12:44;17.20;;;15.60;;
65982;SDS011;52740;40.620;-8.640;2022-08-30T01:14:46;18.13;;;16.35;;
65982;SDS011;52740;40.620;-8.640;2022-08-30T01:16:47;17.52;;;15.82;;
65982;SDS011;52740;40.620;-8.640;2022-08-30T01:18:50;17.88;;;16.30;;
65982;SDS011;52740;40.620;-8.640;2022-08-30T01:23:10;16.60;;;15.30;;
65982;SDS011;52740;40.620;-8.640;2022-08-30T01:25:16;17.75;;;16.42;;
65982;SDS011;52740;40.620;-8.640;2022-08-30T01:27:22;16.10;;;14.75;;
65982;SDS011;52740;40.620;-8.640;2022-08-30T01:29:24;19.92;;;18.23;;
65982;SDS011;52740;40.620;-8.640;2022-08-30T01:31:26;18.48;;;16.92;;
65982;SDS011;52740;40.620;-8.640;2022-08-30T01:33:26;18.70;;;17.17;;
65982;SDS011;52740;40.620;-8.640;2022-08-30T01:35:27;18.05;;;16.45;;
65982;SDS011;52740;40.620;-8.640;2022-08-30T01:37:32;19.42;;;17.80;;
65982;SDS011;52740;40.620;-8.640;2022-08-30T01:39:34;19.40;;;18.02;;
65982;SDS011;52740;40.620;-8.640;2022-08-30T01:41:35;19.58;;;17.73;;
65982;SDS011;52740;40.620;-8.640;2022-08-30T01:43:36;18.52;;;17.23;;
65982;SDS011;52740;40.620;-8.640;2022-08-30T01:45:37;18.77;;;17.08;;
65982;SDS011;52740;40.620;-8.640;2022-08-30T01:47:38;17.25;;;15.75;;
65982;SDS011;52740;40.620;-8.640;2022-08-30T01:49:39;16.55;;;15.30;;
65982;SDS011;52740;40.620;-8.640;2022-08-30T01:51:41;17.17;;;15.45;;
65982;SDS011;52740;40.620;-8.640;2022-08-30T01:53:42;17.30;;;15.80;;
65982;SDS011;52740;40.620;-8.640;2022-08-30T01:55:44;17.17;;;15.70;;
65982;SDS011;52740;40.620;-8.640;2022-08-30T01:57:46;17.13;;;15.13;;
65982;SDS011;52740;40.620;-8.640;2022-08-30T01:59:47;16.08;;;14.63;;
65982;SDS011;52740;40.620;-8.640;2022-08-30T02:01:49;15.27;;;14.05;;
65982;SDS011;52740;40.620;-8.640;2022-08-30T02:03:50;16.98;;;15.50;;
65982;SDS011;52740;40.620;-8.640;2022-08-30T02:05:55;17.73;;;16.17;;
65982;SDS011;52740;40.620;-8.640;2022-08-30T02:07:55;16.85;;;15.13;;
65982;SDS011;52740;40.620;-8.640;2022-08-30T02:09:57;16.38;;;14.77;;
65982;SDS011;52740;40.620;-8.640;2022-08-30T02:11:57;16.38;;;14.93;;
65982;SDS011;52740;40.620;-8.640;2022-08-30T02:13:58;16.85;;;14.38;;
65982;SDS011;52740;40.620;-8.640;2022-08-30T02:15:59;17.52;;;16.00;;
65982;SDS011;52740;40.620;-8.640;2022-08-30T02:18:00;16.45;;;14.57;;
65982;SDS011;52740;40.620;-8.640;2022-08-30T02:20:00;17.38;;;15.63;;
65982;SDS011;52740;40.620;-8.640;2022-08-30T02:22:01;15.15;;;13.85;;
65982;SDS011;52740;40.620;-8.640;2022-08-30T02:24:02;16.95;;;15.05;;
65982;SDS011;52740;40.620;-8.640;2022-08-30T02:26:03;17.15;;;15.77;;
65982;SDS011;52740;40.620;-8.640;2022-08-30T02:28:04;20.58;;;18.48;;
65982;SDS011;52740;40.620;-8.640;2022-08-30T02:30:06;32.60;;;21.65;;
65982;SDS011;52740;40.620;-8.640;2022-08-30T02:32:08;34.72;;;25.88;;
65982;SDS011;52740;40.620;-8.640;2022-08-30T02:34:08;38.67;;;26.75;;
65982;SDS011;52740;40.620;-8.640;2022-08-30T02:36:10;42.90;;;25.88;;
65982;SDS011;52740;40.620;-8.640;2022-08-30T02:38:11;44.08;;;28.92;;
65982;SDS011;52740;40.620;-8.640;2022-08-30T02:40:12;39.80;;;28.73;;
65982;SDS011;52740;40.620;-8.640;2022-08-30T02:42:12;43.50;;;28.83;;
65982;SDS011;52740;40.620;-8.640;2022-08-30T02:44:13;40.17;;;25.90;;
65982;SDS011;52740;40.620;-8.640;2022-08-30T02:46:14;40.67;;;25.08;;
65982;SDS011;52740;40.620;-8.640;2022-08-30T02:48:17;46.38;;;26.35;;
65982;SDS011;52740;40.620;-8.640;2022-08-30T02:50:18;50.83;;;27.73;;
65982;SDS011;52740;40.620;-8.640;2022-08-30T02:52:19;40.92;;;26.52;;
65982;SDS011;52740;40.620;-8.640;2022-08-30T02:54:19;52.05;;;27.17;;
65982;SDS011;52740;40.620;-8.640;2022-08-30T02:56:20;51.50;;;28.08;;
65982;SDS011;52740;40.620;-8.640;2022-08-30T02:58:21;55.15;;;28.08;;
65982;SDS011;52740;40.620;-8.640;2022-08-30T03:00:22;51.17;;;26.10;;
65982;SDS011;52740;40.620;-8.640;2022-08-30T03:02:22;50.90;;;26.02;;
65982;SDS011;52740;40.620;-8.640;2022-08-30T03:04:23;52.40;;;26.98;;
65982;SDS011;52740;40.620;-8.640;2022-08-30T03:06:24;45.53;;;25.48;;
65982;SDS011;52740;40.620;-8.640;2022-08-30T03:08:24;52.35;;;24.85;;
65982;SDS011;52740;40.620;-8.640;2022-08-30T03:10:26;46.10;;;24.38;;
65982;SDS011;52740;40.620;-8.640;2022-08-30T03:12:27;51.13;;;25.83;;
65982;SDS011;52740;40.620;-8.640;2022-08-30T03:14:28;43.53;;;24.70;;
65982;SDS011;52740;40.620;-8.640;2022-08-30T03:16:29;51.20;;;24.73;;
65982;SDS011;52740;40.620;-8.640;2022-08-30T03:18:29;40.80;;;21.67;;
65982;SDS011;52740;40.620;-8.640;2022-08-30T03:20:30;41.50;;;22.20;;
65982;SDS011;52740;40.620;-8.640;2022-08-30T03:22:32;44.65;;;24.35;;
65982;SDS011;52740;40.620;-8.640;2022-08-30T03:24:33;38.03;;;21.73;;
65982;SDS011;52740;40.620;-8.640;2022-08-30T03:26:34;48.13;;;22.75;;
65982;SDS011;52740;40.620;-8.640;2022-08-30T03:28:35;44.55;;;22.38;;
65982;SDS011;52740;40.620;-8.640;2022-08-30T03:30:36;35.67;;;21.25;;
65982;SDS011;52740;40.620;-8.640;2022-08-30T03:32:36;44.13;;;22.23;;
65982;SDS011;52740;40.620;-8.640;2022-08-30T03:34:37;38.05;;;21.90;;
65982;SDS011;52740;40.620;-8.640;2022-08-30T03:36:39;39.97;;;21.95;;
65982;SDS011;52740;40.620;-8.640;2022-08-30T03:38:40;41.10;;;25.38;;
65982;SDS011;52740;40.620;-8.640;2022-08-30T03:40:40;39.88;;;21.60;;
65982;SDS011;52740;40.620;-8.640;2022-08-30T03:42:41;44.78;;;23.58;;
65982;SDS011;52740;40.620;-8.640;2022-08-30T03:44:43;41.25;;;23.40;;
65982;SDS011;52740;40.620;-8.640;2022-08-30T03:46:43;40.53;;;21.75;;
65982;SDS011;52740;40.620;-8.640;2022-08-30T03:48:44;45.17;;;21.88;;
65982;SDS011;52740;40.620;-8.640;2022-08-30T03:50:45;39.13;;;21.80;;
65982;SDS011;52740;40.620;-8.640;2022-08-30T03:52:46;44.25;;;21.92;;
65982;SDS011;52740;40.620;-8.640;2022-08-30T03:54:46;40.17;;;23.20;;
65982;SDS011;52740;40.620;-8.640;2022-08-30T03:56:47;34.90;;;20.65;;
65982;SDS011;52740;40.620;-8.640;2022-08-30T03:58:48;38.72;;;20.70;;
65982;SDS011;52740;40.620;-8.640;2022-08-30T04:00:50;40.85;;;22.52;;
65982;SDS011;52740;40.620;-8.640;2022-08-30T04:02:50;42.95;;;21.60;;
65982;SDS011;52740;40.620;-8.640;2022-08-30T04:04:51;42.40;;;21.65;;
65982;SDS011;52740;40.620;-8.640;2022-08-30T04:06:52;40.00;;;19.90;;
65982;SDS011;52740;40.620;-8.640;2022-08-30T04:08:53;41.65;;;21.30;;
65982;SDS011;52740;40.620;-8.640;2022-08-30T04:10:54;36.63;;;22.08;;
65982;SDS011;52740;40.620;-8.640;2022-08-30T04:12:55;43.15;;;22.30;;
65982;SDS011;52740;40.620;-8.640;2022-08-30T04:14:55;45.95;;;21.98;;
65982;SDS011;52740;40.620;-8.640;2022-08-30T04:16:56;43.28;;;21.63;;
65982;SDS011;52740;40.620;-8.640;2022-08-30T04:18:57;44.00;;;24.20;;
65982;SDS011;52740;40.620;-8.640;2022-08-30T04:20:58;49.95;;;24.70;;
65982;SDS011;52740;40.620;-8.640;2022-08-30T04:22:58;58.67;;;24.42;;
65982;SDS011;52740;40.620;-8.640;2022-08-30T04:24:59;41.55;;;24.15;;
65982;SDS011;52740;40.620;-8.640;2022-08-30T04:26:59;51.85;;;24.10;;
65982;SDS011;52740;40.620;-8.640;2022-08-30T04:29:00;40.97;;;22.65;;
65982;SDS011;52740;40.620;-8.640;2022-08-30T04:31:07;49.85;;;24.23;;
65982;SDS011;52740;40.620;-8.640;2022-08-30T04:33:10;46.95;;;23.35;;
65982;SDS011;52740;40.620;-8.640;2022-08-30T04:35:12;53.28;;;23.55;;
65982;SDS011;52740;40.620;-8.640;2022-08-30T04:37:13;42.83;;;24.08;;
65982;SDS011;52740;40.620;-8.640;2022-08-30T04:39:18;44.63;;;22.15;;
65982;SDS011;52740;40.620;-8.640;2022-08-30T04:41:20;45.45;;;23.00;;
65982;SDS011;52740;40.620;-8.640;2022-08-30T04:43:21;51.75;;;23.60;;
65982;SDS011;52740;40.620;-8.640;2022-08-30T04:45:25;50.42;;;23.02;;
65982;SDS011;52740;40.620;-8.640;2022-08-30T04:47:26;43.80;;;24.35;;
65982;SDS011;52740;40.620;-8.640;2022-08-30T04:49:27;43.83;;;24.95;;
65982;SDS011;52740;40.620;-8.640;2022-08-30T04:51:27;46.95;;;25.05;;
65982;SDS011;52740;40.620;-8.640;2022-08-30T04:53:28;56.88;;;26.80;;
65982;SDS011;52740;40.620;-8.640;2022-08-30T04:55:29;59.03;;;27.20;;
65982;SDS011;52740;40.620;-8.640;2022-08-30T04:57:29;55.08;;;25.63;;
65982;SDS011;52740;40.620;-8.640;2022-08-30T04:59:30;47.33;;;23.70;;
65982;SDS011;52740;40.620;-8.640;2022-08-30T05:01:31;56.92;;;26.33;;
65982;SDS011;52740;40.620;-8.640;2022-08-30T05:03:32;61.13;;;26.17;;
65982;SDS011;52740;40.620;-8.640;2022-08-30T05:05:33;62.08;;;25.40;;
65982;SDS011;52740;40.620;-8.640;2022-08-30T05:07:40;57.95;;;26.00;;
65982;SDS011;52740;40.620;-8.640;2022-08-30T05:09:40;52.10;;;26.35;;
65982;SDS011;52740;40.620;-8.640;2022-08-30T05:11:41;64.50;;;24.58;;
65982;SDS011;52740;40.620;-8.640;2022-08-30T05:13:42;52.28;;;25.15;;
65982;SDS011;52740;40.620;-8.640;2022-08-30T05:15:44;54.00;;;24.77;;
65982;SDS011;52740;40.620;-8.640;2022-08-30T05:17:45;49.15;;;24.17;;
65982;SDS011;52740;40.620;-8.640;2022-08-30T05:19:45;57.47;;;27.77;;
65982;SDS011;52740;40.620;-8.640;2022-08-30T05:21:46;60.53;;;26.30;;
65982;SDS011;52740;40.620;-8.640;2022-08-30T05:23:47;63.35;;;26.63;;
65982;SDS011;52740;40.620;-8.640;2022-08-30T05:25:49;59.67;;;27.33;;
65982;SDS011;52740;40.620;-8.640;2022-08-30T05:27:50;60.00;;;28.70;;
65982;SDS011;52740;40.620;-8.640;2022-08-30T05:29:52;67.10;;;28.40;;
65982;SDS011;52740;40.620;-8.640;2022-08-30T05:31:52;63.15;;;30.05;;
65982;SDS011;52740;40.620;-8.640;2022-08-30T05:33:53;60.20;;;23.65;;
65982;SDS011;52740;40.620;-8.640;2022-08-30T05:35:55;65.28;;;28.50;;
65982;SDS011;52740;40.620;-8.640;2022-08-30T05:37:56;52.90;;;25.77;;
65982;SDS011;52740;40.620;-8.640;2022-08-30T05:39:56;49.38;;;25.23;;
65982;SDS011;52740;40.620;-8.640;2022-08-30T05:41:58;57.53;;;25.85;;
65982;SDS011;52740;40.620;-8.640;2022-08-30T05:43:59;58.40;;;24.95;;
65982;SDS011;52740;40.620;-8.640;2022-08-30T05:46:02;55.00;;;26.15;;
65982;SDS011;52740;40.620;-8.640;2022-08-30T05:48:06;64.97;;;32.13;;
65982;SDS011;52740;40.620;-8.640;2022-08-30T05:50:07;62.50;;;26.20;;
65982;SDS011;52740;40.620;-8.640;2022-08-30T05:52:09;56.70;;;25.83;;
65982;SDS011;52740;40.620;-8.640;2022-08-30T05:54:11;77.28;;;29.75;;
65982;SDS011;52740;40.620;-8.640;2022-08-30T05:56:13;63.30;;;25.17;;
65982;SDS011;52740;40.620;-8.640;2022-08-30T05:58:16;72.22;;;26.10;;
65982;SDS011;52740;40.620;-8.640;2022-08-30T06:00:17;56.35;;;23.00;;
65982;SDS011;52740;40.620;-8.640;2022-08-30T06:02:18;68.50;;;25.30;;
65982;SDS011;52740;40.620;-8.640;2022-08-30T06:04:19;68.05;;;25.35;;
65982;SDS011;52740;40.620;-8.640;2022-08-30T06:06:19;61.95;;;26.38;;
65982;SDS011;52740;40.620;-8.640;2022-08-30T06:08:20;67.00;;;27.17;;
65982;SDS011;52740;40.620;-8.640;2022-08-30T06:10:21;65.68;;;27.67;;
65982;SDS011;52740;40.620;-8.640;2022-08-30T06:12:22;63.40;;;24.70;;
65982;SDS011;52740;40.620;-8.640;2022-08-30T06:14:23;64.28;;;26.83;;
65982;SDS011;52740;40.620;-8.640;2022-08-30T06:16:25;64.30;;;24.48;;
65982;SDS011;52740;40.620;-8.640;2022-08-30T06:18:26;54.65;;;23.02;;
65982;SDS011;52740;40.620;-8.640;2022-08-30T06:20:27;50.90;;;22.60;;
65982;SDS011;52740;40.620;-8.640;2022-08-30T06:22:27;54.28;;;22.38;;
65982;SDS011;52740;40.620;-8.640;2022-08-30T06:24:28;51.50;;;22.60;;
65982;SDS011;52740;40.620;-8.640;2022-08-30T06:26:29;35.42;;;19.08;;
65982;SDS011;52740;40.620;-8.640;2022-08-30T06:28:30;35.95;;;18.52;;
65982;SDS011;52740;40.620;-8.640;2022-08-30T06:30:31;27.83;;;17.80;;
65982;SDS011;52740;40.620;-8.640;2022-08-30T06:32:33;25.13;;;16.25;;
65982;SDS011;52740;40.620;-8.640;2022-08-30T06:34:34;26.15;;;14.13;;
65982;SDS011;52740;40.620;-8.640;2022-08-30T06:36:35;20.88;;;14.07;;
65982;SDS011;52740;40.620;-8.640;2022-08-30T06:38:36;27.20;;;14.15;;
65982;SDS011;52740;40.620;-8.640;2022-08-30T06:40:38;17.75;;;11.98;;
65982;SDS011;52740;40.620;-8.640;2022-08-30T06:42:39;17.08;;;12.57;;
65982;SDS011;52740;40.620;-8.640;2022-08-30T06:44:40;20.50;;;10.95;;
65982;SDS011;52740;40.620;-8.640;2022-08-30T06:46:40;13.52;;;11.05;;
65982;SDS011;52740;40.620;-8.640;2022-08-30T06:48:41;14.60;;;10.45;;
65982;SDS011;52740;40.620;-8.640;2022-08-30T06:50:42;13.25;;;10.45;;
65982;SDS011;52740;40.620;-8.640;2022-08-30T06:52:44;15.57;;;10.10;;
65982;SDS011;52740;40.620;-8.640;2022-08-30T06:54:45;10.63;;;9.60;;
65982;SDS011;52740;40.620;-8.640;2022-08-30T06:56:46;14.52;;;10.07;;
65982;SDS011;52740;40.620;-8.640;2022-08-30T06:58:47;13.05;;;11.23;;
65982;SDS011;52740;40.620;-8.640;2022-08-30T07:00:49;15.25;;;10.18;;
65982;SDS011;52740;40.620;-8.640;2022-08-30T07:02:49;10.80;;;9.70;;
65982;SDS011;52740;40.620;-8.640;2022-08-30T07:04:50;11.88;;;9.80;;
65982;SDS011;52740;40.620;-8.640;2022-08-30T07:06:51;10.68;;;9.57;;
65982;SDS011;52740;40.620;-8.640;2022-08-30T07:08:52;12.00;;;9.90;;
65982;SDS011;52740;40.620;-8.640;2022-08-30T07:10:53;14.95;;;10.02;;
65982;SDS011;52740;40.620;-8.640;2022-08-30T07:12:54;11.63;;;10.32;;
65982;SDS011;52740;40.620;-8.640;2022-08-30T07:14:55;11.68;;;9.85;;
65982;SDS011;52740;40.620;-8.640;2022-08-30T07:16:55;11.52;;;10.43;;
65982;SDS011;52740;40.620;-8.640;2022-08-30T07:18:56;15.52;;;11.70;;
65982;SDS011;52740;40.620;-8.640;2022-08-30T07:20:58;12.45;;;11.20;;
65982;SDS011;52740;40.620;-8.640;2022-08-30T07:23:07;11.30;;;10.35;;
65982;SDS011;52740;40.620;-8.640;2022-08-30T07:25:08;11.10;;;10.05;;
65982;SDS011;52740;40.620;-8.640;2022-08-30T07:27:09;11.85;;;10.55;;
65982;SDS011;52740;40.620;-8.640;2022-08-30T07:29:09;18.25;;;10.85;;
65982;SDS011;52740;40.620;-8.640;2022-08-30T07:31:10;11.50;;;10.55;;
65982;SDS011;52740;40.620;-8.640;2022-08-30T07:33:12;12.80;;;11.27;;
65982;SDS011;52740;40.620;-8.640;2022-08-30T07:35:14;13.95;;;12.80;;
65982;SDS011;52740;40.620;-8.640;2022-08-30T07:37:15;14.07;;;11.88;;
65982;SDS011;52740;40.620;-8.640;2022-08-30T07:39:16;13.27;;;11.40;;
65982;SDS011;52740;40.620;-8.640;2022-08-30T07:41:21;13.98;;;11.90;;
65982;SDS011;52740;40.620;-8.640;2022-08-30T07:43:30;11.85;;;10.90;;
65982;SDS011;52740;40.620;-8.640;2022-08-30T07:45:36;12.25;;;11.35;;
65982;SDS011;52740;40.620;-8.640;2022-08-30T07:47:38;13.00;;;11.90;;
65982;SDS011;52740;40.620;-8.640;2022-08-30T07:49:38;15.55;;;13.75;;
65982;SDS011;52740;40.620;-8.640;2022-08-30T07:51:39;16.85;;;15.30;;
65982;SDS011;52740;40.620;-8.640;2022-08-30T07:53:41;16.90;;;14.98;;
65982;SDS011;52740;40.620;-8.640;2022-08-30T07:55:42;19.38;;;15.90;;
65982;SDS011;52740;40.620;-8.640;2022-08-30T07:57:42;16.50;;;14.90;;
65982;SDS011;52740;40.620;-8.640;2022-08-30T07:59:43;19.02;;;15.95;;
65982;SDS011;52740;40.620;-8.640;2022-08-30T08:01:44;15.88;;;14.52;;
65982;SDS011;52740;40.620;-8.640;2022-08-30T08:03:44;17.42;;;13.70;;
65982;SDS011;52740;40.620;-8.640;2022-08-30T08:05:46;14.43;;;12.80;;
65982;SDS011;52740;40.620;-8.640;2022-08-30T08:07:47;13.80;;;12.05;;
65982;SDS011;52740;40.620;-8.640;2022-08-30T08:09:48;13.63;;;12.32;;
65982;SDS011;52740;40.620;-8.640;2022-08-30T08:11:49;14.15;;;12.60;;
65982;SDS011;52740;40.620;-8.640;2022-08-30T08:13:50;14.35;;;13.05;;
65982;SDS011;52740;40.620;-8.640;2022-08-30T08:15:52;17.33;;;13.57;;
65982;SDS011;52740;40.620;-8.640;2022-08-30T08:17:53;14.27;;;12.07;;
65982;SDS011;52740;40.620;-8.640;2022-08-30T08:19:54;13.35;;;12.02;;
65982;SDS011;52740;40.620;-8.640;2022-08-30T08:21:54;17.50;;;12.50;;
65982;SDS011;52740;40.620;-8.640;2022-08-30T08:23:58;23.10;;;12.73;;
65982;SDS011;52740;40.620;-8.640;2022-08-30T08:25:59;19.90;;;12.27;;
65982;SDS011;52740;40.620;-8.640;2022-08-30T08:27:59;14.73;;;12.55;;
65982;SDS011;52740;40.620;-8.640;2022-08-30T08:30:01;16.77;;;13.27;;
65982;SDS011;52740;40.620;-8.640;2022-08-30T08:32:02;16.10;;;12.27;;
65982;SDS011;52740;40.620;-8.640;2022-08-30T08:34:03;18.85;;;12.80;;
65982;SDS011;52740;40.620;-8.640;2022-08-30T08:36:04;17.35;;;12.50;;
65982;SDS011;52740;40.620;-8.640;2022-08-30T08:38:05;23.77;;;12.90;;
65982;SDS011;52740;40.620;-8.640;2022-08-30T08:40:07;16.83;;;12.70;;
65982;SDS011;52740;40.620;-8.640;2022-08-30T08:44:37;18.80;;;12.18;;
65982;SDS011;52740;40.620;-8.640;2022-08-30T08:49:06;18.88;;;13.27;;
65982;SDS011;52740;40.620;-8.640;2022-08-30T08:51:08;22.17;;;13.73;;
65982;SDS011;52740;40.620;-8.640;2022-08-30T08:53:32;20.88;;;13.52;;
65982;SDS011;52740;40.620;-8.640;2022-08-30T08:55:35;17.08;;;12.85;;
65982;SDS011;52740;40.620;-8.640;2022-08-30T08:57:41;19.23;;;13.50;;
65982;SDS011;52740;40.620;-8.640;2022-08-30T08:59:42;18.85;;;13.80;;
65982;SDS011;52740;40.620;-8.640;2022-08-30T09:01:45;22.05;;;14.02;;
65982;SDS011;52740;40.620;-8.640;2022-08-30T09:03:47;15.88;;;13.43;;
65982;SDS011;52740;40.620;-8.640;2022-08-30T09:05:49;23.52;;;20.10;;
65982;SDS011;52740;40.620;-8.640;2022-08-30T09:08:01;21.52;;;13.82;;
65982;SDS011;52740;40.620;-8.640;2022-08-30T09:10:04;16.77;;;14.10;;
65982;SDS011;52740;40.620;-8.640;2022-08-30T09:12:07;15.50;;;13.90;;
65982;SDS011;52740;40.620;-8.640;2022-08-30T09:14:15;18.45;;;16.58;;
65982;SDS011;52740;40.620;-8.640;2022-08-30T09:21:35;28.27;;;25.98;;
65982;SDS011;52740;40.620;-8.640;2022-08-30T09:23:36;31.77;;;29.65;;
65982;SDS011;52740;40.620;-8.640;2022-08-30T09:25:50;29.55;;;27.45;;
65982;SDS011;52740;40.620;-8.640;2022-08-30T09:27:54;31.75;;;29.13;;
65982;SDS011;52740;40.620;-8.640;2022-08-30T09:30:14;31.05;;;28.63;;
65982;SDS011;52740;40.620;-8.640;2022-08-30T09:32:34;31.75;;;29.02;;
65982;SDS011;52740;40.620;-8.640;2022-08-30T09:34:39;33.00;;;30.65;;
65982;SDS011;52740;40.620;-8.640;2022-08-30T09:36:44;34.57;;;32.07;;
65982;SDS011;52740;40.620;-8.640;2022-08-30T09:39:00;34.72;;;32.22;;
65982;SDS011;52740;40.620;-8.640;2022-08-30T09:41:26;28.30;;;26.13;;
65982;SDS011;52740;40.620;-8.640;2022-08-30T09:43:35;19.75;;;18.25;;
65982;SDS011;52740;40.620;-8.640;2022-08-30T09:45:38;20.65;;;18.55;;
65982;SDS011;52740;40.620;-8.640;2022-08-30T09:47:41;20.15;;;18.35;;
65982;SDS011;52740;40.620;-8.640;2022-08-30T09:49:42;21.13;;;18.95;;
65982;SDS011;52740;40.620;-8.640;2022-08-30T09:51:51;23.13;;;17.85;;
65982;SDS011;52740;40.620;-8.640;2022-08-30T10:03:30;46.53;;;43.47;;
65982;SDS011;52740;40.620;-8.640;2022-08-30T10:12:32;38.20;;;35.80;;
65982;SDS011;52740;40.620;-8.640;2022-08-30T10:17:00;20.88;;;19.17;;
65982;SDS011;52740;40.620;-8.640;2022-08-30T10:24:09;18.73;;;17.10;;
65982;SDS011;52740;40.620;-8.640;2022-08-30T10:26:19;17.85;;;16.48;;
65982;SDS011;52740;40.620;-8.640;2022-08-30T10:28:45;19.67;;;18.05;;
65982;SDS011;52740;40.620;-8.640;2022-08-30T10:30:55;19.05;;;17.27;;
65982;SDS011;52740;40.620;-8.640;2022-08-30T10:33:02;22.17;;;20.73;;
65982;SDS011;52740;40.620;-8.640;2022-08-30T10:37:53;29.63;;;27.38;;
65982;SDS011;52740;40.620;-8.640;2022-08-30T10:40:04;25.73;;;24.13;;
65982;SDS011;52740;40.620;-8.640;2022-08-30T10:44:48;23.17;;;21.67;;
65982;SDS011;52740;40.620;-8.640;2022-08-30T10:49:31;21.90;;;20.40;;
65982;SDS011;52740;40.620;-8.640;2022-08-30T10:51:45;23.10;;;21.60;;
65982;SDS011;52740;40.620;-8.640;2022-08-30T10:56:15;25.48;;;23.85;;
65982;SDS011;52740;40.620;-8.640;2022-08-30T10:58:20;1999.90;;;999.90;;
65982;SDS011;52740;40.620;-8.640;2022-08-30T11:00:22;1999.90;;;999.90;;
65982;SDS011;52740;40.620;-8.640;2022-08-30T11:07:28;1999.90;;;999.90;;
65982;SDS011;52740;40.620;-8.640;2022-08-30T11:12:30;1999.90;;;999.90;;
65982;SDS011;52740;40.620;-8.640;2022-08-30T11:14:38;1999.90;;;999.90;;
65982;SDS011;52740;40.620;-8.640;2022-08-30T11:16:41;1999.90;;;999.90;;
65982;SDS011;52740;40.620;-8.640;2022-08-30T11:20:53;1999.90;;;999.90;;
65982;SDS011;52740;40.620;-8.640;2022-08-30T11:27:53;1999.90;;;999.90;;
65982;SDS011;52740;40.620;-8.640;2022-08-30T11:29:58;1999.90;;;999.90;;
65982;SDS011;52740;40.620;-8.640;2022-08-30T11:32:39;1999.90;;;999.90;;
65982;SDS011;52740;40.620;-8.640;2022-08-30T11:34:58;1999.90;;;999.90;;
65982;SDS011;52740;40.620;-8.640;2022-08-30T11:37:00;1999.90;;;999.90;;
65982;SDS011;52740;40.620;-8.640;2022-08-30T11:41:12;1999.90;;;999.90;;
65982;SDS011;52740;40.620;-8.640;2022-08-30T11:45:41;1999.90;;;999.90;;
65982;SDS011;52740;40.620;-8.640;2022-08-30T11:47:46;1999.90;;;999.90;;
65982;SDS011;52740;40.620;-8.640;2022-08-30T11:50:01;1999.90;;;999.90;;
65982;SDS011;52740;40.620;-8.640;2022-08-30T11:59:31;1999.90;;;999.90;;
65982;SDS011;52740;40.620;-8.640;2022-08-30T12:01:53;1999.90;;;999.90;;
65982;SDS011;52740;40.620;-8.640;2022-08-30T12:06:05;1999.90;;;999.90;;
65982;SDS011;52740;40.620;-8.640;2022-08-30T12:10:21;1999.90;;;999.90;;
65982;SDS011;52740;40.620;-8.640;2022-08-30T12:14:42;1999.90;;;999.90;;
65982;SDS011;52740;40.620;-8.640;2022-08-30T12:16:46;1999.90;;;999.90;;
65982;SDS011;52740;40.620;-8.640;2022-08-30T12:19:14;1999.90;;;999.90;;
65982;SDS011;52740;40.620;-8.640;2022-08-30T12:25:31;1999.90;;;999.90;;
65982;SDS011;52740;40.620;-8.640;2022-08-30T12:27:33;1999.90;;;999.90;;
65982;SDS011;52740;40.620;-8.640;2022-08-30T12:29:33;1999.90;;;999.90;;
65982;SDS011;52740;40.620;-8.640;2022-08-30T12:31:53;1999.90;;;999.90;;
65982;SDS011;52740;40.620;-8.640;2022-08-30T12:34:00;1999.90;;;999.90;;
65982;SDS011;52740;40.620;-8.640;2022-08-30T12:36:02;1999.90;;;999.90;;
65982;SDS011;52740;40.620;-8.640;2022-08-30T12:38:04;1999.90;;;999.90;;
65982;SDS011;52740;40.620;-8.640;2022-08-30T12:40:18;1999.90;;;999.90;;
65982;SDS011;52740;40.620;-8.640;2022-08-30T12:42:22;1999.90;;;999.90;;
65982;SDS011;52740;40.620;-8.640;2022-08-30T12:44:26;1999.90;;;999.90;;
65982;SDS011;52740;40.620;-8.640;2022-08-30T12:46:27;1999.90;;;999.90;;
65982;SDS011;52740;40.620;-8.640;2022-08-30T12:48:32;1999.90;;;999.90;;
65982;SDS011;52740;40.620;-8.640;2022-08-30T12:50:46;1999.90;;;999.90;;
65982;SDS011;52740;40.620;-8.640;2022-08-30T12:52:59;1999.90;;;999.90;;
65982;SDS011;52740;40.620;-8.640;2022-08-30T12:55:12;1999.90;;;999.90;;
65982;SDS011;52740;40.620;-8.640;2022-08-30T12:57:38;1999.90;;;999.90;;
65982;SDS011;52740;40.620;-8.640;2022-08-30T12:59:57;1999.90;;;999.90;;
65982;SDS011;52740;40.620;-8.640;2022-08-30T13:02:10;1999.90;;;999.90;;
65982;SDS011;52740;40.620;-8.640;2022-08-30T13:08:48;30.80;;;28.88;;
65982;SDS011;52740;40.620;-8.640;2022-08-30T13:11:04;31.10;;;29.52;;
65982;SDS011;52740;40.620;-8.640;2022-08-30T13:13:07;1999.90;;;999.90;;
65982;SDS011;52740;40.620;-8.640;2022-08-30T13:15:18;1999.90;;;999.90;;